Andover, New York
Current Conditions -  °F | °C
As of 6:56 PM on Friday 24 Oct 2014 (Local Time) from KELZ Reporting Station
Clear Clear  
Wind Chill: 45°   Ceiling: Unl
Heat Index: 49°   Visibility: 10mi
Dew Point: 24°   Wind: 10mph
Humidity: 38%   Direction: 300°WNW
Pressure: 29.96"   Gusts: NA
Location:  42.16°N, 77.8°W
Report Text: KELZ 242256Z AUTO 30009KT 10SM CLR 09/M04 A2996 RMK AO2 SLP155 T00941044
Loading
Personal Weather Stations






























Interactive Weather Map
Tropical Storm Tracking
New forecast layout! Learn more

10-Day Weather Forecast

Advertisements
Track Severe Weather on mobile